Time;durP1;ratioP1;P1;durP2;ratioP2;P2;SDS_P1;SDS_P2;PMS_P1;PMS_P2;Temp;Humidity;BMP_temperature;BMP_pressure;BME280_temperature;BME280_humidity;BME280_pressure;Samples;Min_cycle;Max_cycle;Signal;HPM_P1;HPM_P2
2022/04/14 00:00:55;;;;;;;14.30;6.60;;;;;;;6.65;50.17;98846.64;105567;1282;24274;-76
2022/04/14 00:03:22;;;;;;;12.70;6.90;;;;;;;6.63;50.03;98846.57;105668;1281;24234;-76
2022/04/14 00:06:03;;;;;;;15.20;7.40;;;;;;;6.61;50.31;98848.48;105465;1282;136933;-76
2022/04/14 00:08:30;;;;;;;15.40;7.00;;;;;;;6.58;50.43;98842.78;105703;1283;22565;-76
2022/04/14 00:11:11;;;;;;;12.70;6.30;;;;;;;6.55;50.50;98840.87;105578;1281;137326;-76
2022/04/14 00:13:39;;;;;;;12.40;6.20;;;;;;;6.52;50.81;98841.82;105797;1281;22551;-75
2022/04/14 00:16:06;;;;;;;13.30;6.50;;;;;;;6.49;50.85;98836.76;105600;1282;137128;-78
2022/04/14 00:18:33;;;;;;;11.50;5.90;;;;;;;6.46;50.75;98838.05;105768;1280;25272;-76
2022/04/14 00:21:14;;;;;;;10.80;6.10;;;;;;;6.43;51.24;98837.12;105691;1282;24318;-75
2022/04/14 00:23:55;;;;;;;12.00;5.90;;;;;;;6.41;51.21;98840.20;105618;1281;137015;-77
2022/04/14 00:26:35;;;;;;;12.40;5.90;;;;;;;6.38;51.33;98840.84;105637;1281;22628;-76
2022/04/14 00:29:02;;;;;;;10.80;6.10;;;;;;;6.36;51.55;98842.38;105521;1281;137342;-76
2022/04/14 00:31:30;;;;;;;12.80;6.10;;;;;;;6.33;51.72;98846.33;105604;1281;24229;-77
2022/04/14 00:34:10;;;;;;;11.40;6.20;;;;;;;6.30;51.86;98846.16;105607;1281;137158;-77
2022/04/14 00:36:37;;;;;;;13.30;6.70;;;;;;;6.27;52.15;98845.08;105623;1281;24299;-76
2022/04/14 00:39:18;;;;;;;12.00;6.30;;;;;;;6.25;52.30;98840.88;105796;1281;22546;-76
2022/04/14 00:41:46;;;;;;;14.60;6.90;;;;;;;6.22;52.29;98838.00;105698;1281;137111;-76
2022/04/14 00:44:13;;;;;;;12.00;6.30;;;;;;;6.20;52.54;98844.29;105713;1281;24110;-76
2022/04/14 00:46:40;;;;;;;11.80;6.40;;;;;;;6.18;52.82;98846.94;105512;1281;137451;-76
2022/04/14 00:49:07;;;;;;;13.50;6.60;;;;;;;6.15;52.71;98850.35;105621;1281;22573;-76
2022/04/14 00:51:48;;;;;;;13.30;6.60;;;;;;;6.13;52.41;98846.80;105680;1281;24268;-76
2022/04/14 00:54:15;;;;;;;13.60;6.70;;;;;;;6.11;52.29;98851.81;105644;1281;137193;-76
2022/04/14 00:56:59;;;;;;;11.70;6.40;;;;;;;6.09;52.54;98849.17;105806;1281;24326;-77
2022/04/14 00:59:41;;;;;;;13.90;7.00;;;;;;;6.06;52.71;98846.14;105514;1281;137007;-77
2022/04/14 01:02:09;;;;;;;13.70;6.40;;;;;;;6.02;52.81;98843.80;105774;1281;22593;-76
2022/04/14 01:04:37;;;;;;;12.70;7.00;;;;;;;6.00;53.14;98844.59;105525;1281;137690;-76
2022/04/14 01:07:08;;;;;;;13.40;6.70;;;;;;;5.97;53.15;98840.85;105665;1282;25377;-76
2022/04/14 01:09:36;;;;;;;17.00;6.80;;;;;;;5.94;53.19;98839.95;105750;1281;25324;-76
2022/04/14 01:12:06;;;;;;;13.30;7.20;;;;;;;5.91;53.33;98841.27;105664;1281;137079;-76
2022/04/14 01:14:37;;;;;;;17.40;7.40;;;;;;;5.87;54.31;98838.55;105596;1281;22570;-75
2022/04/14 01:17:18;;;;;;;11.20;6.90;;;;;;;5.83;54.63;98837.48;105520;1281;137117;-76
2022/04/14 01:19:47;;;;;;;;;;;;;;;5.79;54.40;98839.95;105733;1281;24298;-76
2022/04/14 01:22:24;;;;;;;11.80;6.10;;;;;;;5.75;54.41;98838.16;105630;1281;123658;-76
2022/04/14 01:24:56;;;;;;;14.50;7.40;;;;;;;5.72;54.29;98829.96;105808;1281;22734;-76
2022/04/14 01:27:37;;;;;;;15.50;8.70;;;;;;;5.69;54.16;98827.75;105683;1281;22557;-76
2022/04/14 01:30:04;;;;;;;17.40;7.50;;;;;;;5.67;54.47;98829.63;105645;1281;137206;-76
2022/04/14 01:32:32;;;;;;;13.40;7.20;;;;;;;5.65;54.13;98833.73;105603;1281;22588;-76
2022/04/14 01:34:59;;;;;;;17.40;8.90;;;;;;;5.65;53.89;98837.44;105597;1282;137054;-76
2022/04/14 01:37:40;;;;;;;17.40;8.90;;;;;;;5.63;54.53;98841.63;105602;1281;25511;-76
2022/04/14 01:40:08;;;;;;;19.00;8.10;;;;;;;5.60;56.11;98842.36;105560;1281;137229;-76
2022/04/14 01:42:35;;;;;;;16.40;8.80;;;;;;;5.54;57.13;98840.59;105731;1282;22718;-78
2022/04/14 01:45:03;;;;;;;20.60;9.80;;;;;;;5.47;57.52;98839.16;105821;1281;25522;-76
2022/04/14 01:47:30;;;;;;;33.00;9.60;;;;;;;5.41;57.73;98838.34;105631;1281;137369;-75
2022/04/14 01:49:57;;;;;;;49.30;11.00;;;;;;;5.35;57.72;98835.01;105746;1281;22690;-76
2022/04/14 01:52:24;;;;;;;23.30;9.20;;;;;;;5.31;57.52;98832.99;105615;1281;137417;-76
2022/04/14 01:54:51;;;;;;;25.90;8.50;;;;;;;5.28;57.40;98840.38;105709;1281;25549;-76
2022/04/14 01:57:32;;;;;;;21.90;8.60;;;;;;;5.24;56.87;98837.53;105699;1281;24328;-76
2022/04/14 02:00:01;;;;;;;19.40;8.80;;;;;;;5.22;56.41;98831.86;105601;1281;136992;-76
2022/04/14 02:02:28;;;;;;;21.30;8.60;;;;;;;5.20;56.37;98831.77;105481;1281;22781;-76
2022/04/14 02:05:09;;;;;;;19.00;8.50;;;;;;;5.15;56.88;98834.88;105606;1281;137238;-76
2022/04/14 02:07:36;;;;;;;17.20;8.60;;;;;;;5.11;56.90;98836.27;105556;1281;22548;-76
2022/04/14 02:10:04;;;;;;;19.60;9.40;;;;;;;5.07;58.06;98839.48;105521;1281;137568;-75
2022/04/14 02:12:33;;;;;;;16.10;8.80;;;;;;;5.03;59.21;98849.11;105729;1281;24238;-76
2022/04/14 02:15:01;;;;;;;20.30;10.70;;;;;;;4.97;59.54;98851.31;105721;1281;25393;-77
2022/04/14 02:17:42;;;;;;;18.10;10.10;;;;;;;4.91;59.60;98849.16;105628;1281;137164;-75
2022/04/14 02:20:23;;;;;;;20.90;10.60;;;;;;;4.87;59.46;98857.27;105577;1281;24357;-76
2022/04/14 02:23:04;;;;;;;25.30;11.50;;;;;;;4.82;59.09;98854.00;105734;1281;137384;-76
2022/04/14 02:25:31;;;;;;;21.50;10.40;;;;;;;4.79;59.15;98854.44;105663;1281;22630;-76
2022/04/14 02:28:16;;;;;;;19.50;11.30;;;;;;;4.73;59.34;98851.59;105707;1281;137261;-76
2022/04/14 02:30:57;;;;;;;22.00;10.80;;;;;;;4.69;59.09;98846.75;105782;1281;22559;-77
2022/04/14 02:33:38;;;;;;;22.30;11.70;;;;;;;4.67;58.44;98843.61;105707;1281;24197;-76
2022/04/14 02:36:05;;;;;;;20.20;10.10;;;;;;;4.67;58.40;98842.78;105536;1281;137292;-76
2022/04/14 02:38:46;;;;;;;19.30;10.10;;;;;;;4.66;58.29;98837.17;105970;1281;22569;-76
2022/04/14 02:41:13;;;;;;;24.40;9.50;;;;;;;4.64;58.08;98837.54;105533;1282;137570;-77
2022/04/14 02:43:40;;;;;;;18.70;9.20;;;;;;;4.63;57.83;98837.20;105630;1281;25384;-77
2022/04/14 02:46:21;;;;;;;19.00;8.90;;;;;;;4.62;57.50;98834.41;105516;1281;137076;-77
2022/04/14 02:48:49;;;;;;;17.70;9.50;;;;;;;4.61;58.00;98827.15;105678;1281;22628;-76
2022/04/14 02:51:16;;;;;;;17.80;8.50;;;;;;;4.60;58.32;98831.20;105665;1281;23977;-76
2022/04/14 02:53:43;;;;;;;19.40;10.00;;;;;;;4.59;58.02;98833.86;105601;1281;137095;-76
2022/04/14 02:56:23;;;;;;;18.20;9.50;;;;;;;4.57;59.21;98832.64;105840;1281;24338;-76
2022/04/14 02:58:51;;;;;;;19.40;11.00;;;;;;;4.50;60.73;98833.34;105582;1281;137455;-76
2022/04/14 03:01:32;;;;;;;20.80;10.40;;;;;;;4.42;61.34;98828.91;105707;1281;23927;-77
2022/04/14 03:03:59;;;;;;;22.20;10.70;;;;;;;4.33;61.08;98821.14;105750;1281;24305;-77
2022/04/14 03:06:26;;;;;;;18.20;10.30;;;;;;;4.29;60.88;98824.92;105589;1281;138092;-77
2022/04/14 03:08:53;;;;;;;17.90;9.70;;;;;;;4.27;60.37;98818.77;105661;1281;25399;-77
2022/04/14 03:11:20;;;;;;;17.90;10.00;;;;;;;4.25;60.28;98822.23;105522;1282;136889;-77
2022/04/14 03:13:47;;;;;;;19.20;10.60;;;;;;;4.23;60.51;98822.71;105545;1281;24726;-77
2022/04/14 03:16:14;;;;;;;19.10;10.50;;;;;;;4.20;60.35;98822.48;105590;1281;137379;-77
2022/04/14 03:18:41;;;;;;;23.80;11.70;;;;;;;4.18;60.29;98821.98;105638;1281;25430;-77
2022/04/14 03:21:23;;;;;;;21.40;10.60;;;;;;;4.14;61.68;98827.16;105848;1281;22711;-77
2022/04/14 03:23:50;;;;;;;19.40;10.20;;;;;;;4.11;61.90;98828.23;105629;1278;137228;-77
2022/04/14 03:26:17;;;;;;;21.80;10.70;;;;;;;4.09;61.76;98825.80;105584;1281;25261;-77
2022/04/14 03:28:44;;;;;;;24.40;11.20;;;;;;;4.06;61.60;98825.48;105558;1281;137794;-77
2022/04/14 03:31:25;;;;;;;19.50;10.90;;;;;;;4.03;61.29;98827.86;105716;1281;31266;-77
2022/04/14 03:33:52;;;;;;;16.00;9.60;;;;;;;4.00;61.62;98828.98;105722;1281;22547;-77
2022/04/14 03:36:20;;;;;;;18.30;9.70;;;;;;;3.95;61.87;98826.30;105537;1282;137165;-77
2022/04/14 03:38:47;;;;;;;18.80;10.40;;;;;;;3.90;61.26;98830.05;105628;1281;22714;-77
2022/04/14 03:41:14;;;;;;;22.00;11.20;;;;;;;3.86;61.33;98829.20;105562;1281;137926;-77
2022/04/14 03:43:41;;;;;;;24.00;11.60;;;;;;;3.84;61.20;98831.28;105671;1281;22558;-77
2022/04/14 03:46:08;;;;;;;23.60;12.20;;;;;;;3.83;60.93;98828.79;105618;1281;137954;-77
2022/04/14 03:48:36;;;;;;;22.90;11.80;;;;;;;3.81;61.12;98830.05;105744;1281;26584;-76
2022/04/14 03:51:03;;;;;;;22.70;12.50;;;;;;;3.78;61.36;98828.27;105689;1281;24250;-76
2022/04/14 03:53:44;;;;;;;22.10;12.20;;;;;;;3.75;60.94;98830.59;105554;1282;137177;-76
2022/04/14 03:56:25;;;;;;;22.70;13.60;;;;;;;3.74;61.01;98829.58;105649;1281;22712;-76
2022/04/14 03:59:06;;;;;;;24.10;12.40;;;;;;;3.71;61.00;98831.83;105687;1281;137104;-76
2022/04/14 04:01:32;;;;;;;19.80;11.40;;;;;;;3.70;60.89;98834.83;105775;1281;25383;-76
2022/04/14 04:04:00;;;;;;;26.10;13.50;;;;;;;3.69;60.86;98842.83;105714;1281;25385;-76
2022/04/14 04:06:27;;;;;;;26.90;13.50;;;;;;;3.69;60.82;98843.23;105663;1281;137001;-78
2022/04/14 04:08:54;;;;;;;28.00;14.20;;;;;;;3.69;60.90;98838.04;105645;1281;25554;-77
2022/04/14 04:11:35;;;;;;;26.40;13.90;;;;;;;3.69;60.91;98838.55;105560;1281;137298;-78
2022/04/14 04:14:02;;;;;;;30.30;14.80;;;;;;;3.69;61.36;98834.41;105752;1281;22583;-77
2022/04/14 04:16:29;;;;;;;29.90;14.70;;;;;;;3.70;61.43;98835.90;105660;1281;137739;-77
2022/04/14 04:19:10;;;;;;;37.90;15.80;;;;;;;3.71;61.44;98837.82;105707;1281;26495;-77
2022/04/14 04:21:37;;;;;;;35.00;14.90;;;;;;;3.72;61.44;98836.09;105713;1281;22560;-78
2022/04/14 04:24:05;;;;;;;44.50;18.40;;;;;;;3.73;61.25;98834.63;105676;1281;137231;-76
2022/04/14 04:26:32;;;;;;;32.90;15.90;;;;;;;3.75;61.54;98831.86;105715;1281;24268;-76
2022/04/14 04:28:59;;;;;;;41.00;15.90;;;;;;;3.77;61.99;98834.90;105668;1281;137672;-77
2022/04/14 04:31:26;;;;;;;46.80;16.30;;;;;;;3.78;61.97;98836.53;105696;1281;22641;-77
2022/04/14 04:33:53;;;;;;;45.60;17.50;;;;;;;3.82;62.06;98840.06;105665;1281;22598;-77
2022/04/14 04:36:21;;;;;;;52.10;20.00;;;;;;;3.84;62.07;98841.35;105564;1281;137284;-77
2022/04/14 04:39:02;;;;;;;50.50;16.60;;;;;;;3.89;62.15;98839.91;105625;1281;24309;-77
2022/04/14 04:41:29;;;;;;;32.00;14.80;;;;;;;3.92;62.08;98840.48;105608;1281;137745;-77
2022/04/14 04:43:56;;;;;;;34.50;12.60;;;;;;;3.96;62.25;98842.73;105658;1281;24511;-77
2022/04/14 04:46:23;;;;;;;30.40;13.20;;;;;;;4.00;62.53;98844.24;105452;1282;137464;-77
2022/04/14 04:48:50;;;;;;;19.10;11.40;;;;;;;4.04;63.63;98840.17;105642;1281;22724;-77
2022/04/14 04:51:18;;;;;;;21.50;11.10;;;;;;;4.05;64.47;98844.13;105660;1282;24263;-78
2022/04/14 04:53:45;;;;;;;24.00;11.70;;;;;;;4.04;64.87;98845.20;105605;1282;137321;-78
2022/04/14 04:56:26;;;;;;;41.90;14.10;;;;;;;4.05;65.41;98846.70;105193;1281;22561;-76
2022/04/14 04:58:53;;;;;;;24.50;13.00;;;;;;;4.05;65.73;98848.45;105718;1281;138031;-76
2022/04/14 05:01:34;;;;;;;27.90;12.30;;;;;;;4.06;66.09;98847.81;105562;1281;24365;-78
2022/04/14 05:04:01;;;;;;;22.20;11.90;;;;;;;4.10;66.21;98846.62;105669;1281;22618;-76
2022/04/14 05:06:42;;;;;;;25.30;13.40;;;;;;;4.15;66.24;98848.20;105490;1281;137062;-76
2022/04/14 05:09:09;;;;;;;26.60;14.00;;;;;;;4.23;66.63;98843.27;105712;1281;22720;-76
2022/04/14 05:11:36;;;;;;;23.90;12.40;;;;;;;4.34;66.83;98841.96;105565;1281;137330;-78
2022/04/14 05:14:03;;;;;;;29.20;12.90;;;;;;;4.43;66.58;98842.29;105788;1281;25427;-76
2022/04/14 05:16:30;;;;;;;26.40;11.40;;;;;;;4.50;66.51;98846.52;105485;1281;137509;-76
2022/04/14 05:18:57;;;;;;;22.00;11.60;;;;;;;4.58;65.34;98843.05;105706;1281;22590;-76
2022/04/14 05:21:38;;;;;;;24.20;12.00;;;;;;;4.67;64.72;98843.53;105510;1282;23298;-76
2022/04/14 05:24:19;;;;;;;26.50;12.00;;;;;;;4.77;64.83;98841.97;105573;1281;138683;-78
2022/04/14 05:27:00;;;;;;;27.80;12.60;;;;;;;4.86;65.33;98838.91;105623;1281;24335;-78
2022/04/14 05:29:42;;;;;;;25.90;12.40;;;;;;;4.95;64.86;98835.77;105427;1281;137333;-76
2022/04/14 05:32:23;;;;;;;19.50;10.70;;;;;;;5.05;64.76;98837.85;105745;1281;22629;-76
2022/04/14 05:34:50;;;;;;;34.70;12.00;;;;;;;5.13;65.28;98839.11;105600;1281;137653;-76
2022/04/14 05:37:17;;;;;;;24.40;11.70;;;;;;;5.22;65.42;98841.56;105680;1281;22576;-76
2022/04/14 05:39:58;;;;;;;22.20;11.50;;;;;;;5.31;65.20;98844.33;105789;1281;25418;-76
2022/04/14 05:42:25;;;;;;;30.50;11.00;;;;;;;5.39;65.59;98848.89;105597;1281;137355;-76
2022/04/14 05:45:07;;;;;;;21.50;11.20;;;;;;;5.47;66.22;98847.64;105453;1282;22560;-77
2022/04/14 05:47:34;;;;;;;23.00;12.00;;;;;;;5.55;66.21;98843.91;105420;1281;137126;-76
2022/04/14 05:50:05;;;;;;;21.60;12.40;;;;;;;5.63;65.88;98840.73;105712;1281;25274;-77
2022/04/14 05:52:32;;;;;;;27.90;13.30;;;;;;;5.73;65.43;98840.10;105541;1281;138911;-76
2022/04/14 05:55:13;;;;;;;23.30;12.10;;;;;;;5.86;65.00;98842.09;105702;1281;24283;-76
2022/04/14 05:57:40;;;;;;;28.80;13.60;;;;;;;5.99;64.74;98839.51;105692;1281;22583;-76
2022/04/14 06:00:21;;;;;;;23.30;12.70;;;;;;;6.14;64.83;98839.70;105590;1281;137627;-78
2022/04/14 06:02:48;;;;;;;26.40;14.10;;;;;;;6.26;65.21;98840.02;105782;1281;22635;-76
2022/04/14 06:05:47;;;;;;;23.70;14.20;;;;;;;6.38;65.13;98841.34;105566;1282;137939;-76
2022/04/14 06:09:17;;;;;;;28.60;14.40;;;;;;;6.53;64.27;98839.09;106145;1281;25319;-76
2022/04/14 06:11:44;;;;;;;29.70;15.50;;;;;;;6.68;64.22;98838.73;105634;1281;137072;-76
2022/04/14 06:14:11;;;;;;;32.30;18.20;;;;;;;6.78;63.81;98839.84;105684;1281;22533;-76
2022/04/14 06:16:38;;;;;;;33.40;17.40;;;;;;;6.88;63.14;98839.98;105829;1281;137731;-76
2022/04/14 06:19:05;;;;;;;34.40;17.20;;;;;;;6.96;62.89;98840.39;105672;1281;23157;-76
2022/04/14 06:21:32;;;;;;;30.20;16.60;;;;;;;7.06;62.69;98841.82;105823;1281;22691;-76
2022/04/14 06:24:13;;;;;;;32.80;16.90;;;;;;;7.15;62.23;98838.00;105526;1282;137250;-76
2022/04/14 06:26:43;;;;;;;28.50;14.70;;;;;;;7.22;61.49;98839.73;105614;1281;22861;-76
2022/04/14 06:29:10;;;;;;;29.00;14.10;;;;;;;7.30;60.71;98843.62;105768;1281;137123;-78
2022/04/14 06:31:51;;;;;;;28.40;14.70;;;;;;;7.41;59.97;98841.31;105542;1281;22778;-76
2022/04/14 06:34:18;;;;;;;27.40;14.20;;;;;;;7.50;60.14;98837.73;106125;1281;22605;-77
2022/04/14 06:36:45;;;;;;;27.60;13.70;;;;;;;7.58;60.01;98839.90;105697;1281;137179;-77
2022/04/14 06:39:26;;;;;;;27.40;14.00;;;;;;;7.69;59.94;98836.73;106013;1281;25386;-79
2022/04/14 06:41:53;;;;;;;25.70;14.40;;;;;;;7.81;60.06;98838.33;106057;1281;137183;-76
2022/04/14 06:44:34;;;;;;;26.10;13.50;;;;;;;7.95;60.37;98839.33;106235;1281;25472;-77
2022/04/14 06:47:01;;;;;;;26.60;14.20;;;;;;;8.07;60.18;98840.27;106199;1281;137665;-77
2022/04/14 06:49:29;;;;;;;29.80;15.40;;;;;;;8.19;59.71;98839.83;106071;1281;22556;-77
2022/04/14 06:51:57;;;;;;;31.00;15.10;;;;;;;8.31;58.79;98837.55;106256;1281;24280;-77
2022/04/14 06:54:38;;;;;;;28.00;14.10;;;;;;;8.45;58.90;98840.46;105543;1281;137836;-77
2022/04/14 06:57:05;;;;;;;30.50;15.50;;;;;;;8.57;58.52;98834.15;105523;1282;22602;-77
2022/04/14 06:59:46;;;;;;;29.80;15.20;;;;;;;8.71;58.44;98830.23;105684;1281;137355;-77
2022/04/14 07:02:14;;;;;;;27.60;14.80;;;;;;;8.83;58.30;98829.19;105741;1281;24444;-77
2022/04/14 07:04:55;;;;;;;31.30;14.60;;;;;;;8.97;57.29;98826.41;105541;1281;137326;-77
2022/04/14 07:07:36;;;;;;;27.30;14.90;;;;;;;9.10;57.74;98825.44;105726;1281;22569;-77
2022/04/14 07:10:04;;;;;;;32.80;16.00;;;;;;;9.23;57.86;98825.36;105532;1282;24324;-77
2022/04/14 07:12:31;;;;;;;32.70;14.00;;;;;;;9.37;57.14;98822.24;105729;1281;137729;-77
2022/04/14 07:15:13;;;;;;;30.10;14.50;;;;;;;9.50;56.47;98823.16;105719;1281;22560;-77
2022/04/14 07:17:54;;;;;;;27.60;14.10;;;;;;;9.63;55.97;98824.61;105614;1281;137377;-76
2022/04/14 07:20:21;;;;;;;36.90;15.60;;;;;;;9.77;55.94;98825.52;105610;1282;22572;-76
2022/04/14 07:22:52;;;;;;;33.10;14.60;;;;;;;9.89;55.13;98823.33;105549;1282;139171;-76
2022/04/14 07:25:21;;;;;;;29.50;14.00;;;;;;;10.01;54.83;98822.61;106262;1281;22578;-76
2022/04/14 07:27:48;;;;;;;26.20;12.70;;;;;;;10.12;54.38;98823.41;106097;1281;25403;-76
2022/04/14 07:30:16;;;;;;;28.50;13.50;;;;;;;10.22;53.79;98822.83;105154;1281;444815;-76
2022/04/14 07:32:45;;;;;;;25.40;12.60;;;;;;;10.32;54.13;98819.30;105664;1281;22839;-76
2022/04/14 07:35:17;;;;;;;18.40;9.70;;;;;;;10.43;53.91;98819.30;105559;1282;138170;-76
2022/04/14 07:37:45;;;;;;;26.40;11.80;;;;;;;10.53;53.35;98825.38;105667;1281;25426;-77
2022/04/14 07:40:12;;;;;;;25.50;11.90;;;;;;;10.63;52.85;98824.61;105732;1281;23082;-77
2022/04/14 07:42:56;;;;;;;26.70;12.00;;;;;;;10.72;52.67;98820.52;105552;1281;137567;-77
2022/04/14 07:45:24;;;;;;;29.00;11.40;;;;;;;10.81;53.34;98818.77;105831;1281;22567;-77
2022/04/14 07:47:51;;;;;;;24.60;11.40;;;;;;;10.90;53.51;98816.89;105591;1281;137519;-77
2022/04/14 07:50:20;;;;;;;28.30;11.10;;;;;;;10.98;53.25;98818.49;105650;1281;24245;-77
2022/04/14 07:52:57;;;;;;;24.50;10.90;;;;;;;11.06;52.61;98818.99;105505;1281;137701;-78
2022/04/14 07:55:38;;;;;;;30.60;11.20;;;;;;;11.15;52.52;98822.64;105266;1281;22553;-78
2022/04/14 07:58:07;;;;;;;29.30;11.30;;;;;;;11.26;51.97;98823.83;105471;1281;22591;-77
2022/04/14 08:00:51;;;;;;;20.90;10.10;;;;;;;11.37;51.68;98820.70;105519;1281;137640;-76
2022/04/14 08:03:18;;;;;;;20.10;10.40;;;;;;;11.50;50.96;98820.89;105661;1281;23948;-76
2022/04/14 08:05:59;;;;;;;24.90;10.30;;;;;;;11.65;50.71;98822.13;105586;1281;137486;-78
2022/04/14 08:08:27;;;;;;;26.30;10.70;;;;;;;11.80;50.47;98822.73;105453;1281;22547;-77
2022/04/14 08:11:11;;;;;;;26.20;10.20;;;;;;;11.96;50.03;98824.96;105391;1281;137806;-76
2022/04/14 08:13:40;;;;;;;24.90;9.50;;;;;;;12.10;49.53;98828.43;105684;1281;24483;-76
2022/04/14 08:16:21;;;;;;;23.90;9.50;;;;;;;12.28;49.92;98829.68;105438;1282;25269;-76
2022/04/14 08:18:48;;;;;;;17.00;9.30;;;;;;;12.45;49.58;98828.48;105808;1281;137523;-76
2022/04/14 08:21:15;;;;;;;27.00;12.20;;;;;;;12.63;48.75;98826.59;105672;1281;26523;-76
2022/04/14 08:23:43;;;;;;;24.80;10.40;;;;;;;12.82;48.49;98826.64;105754;1281;137566;-76
2022/04/14 08:26:11;;;;;;;24.90;11.30;;;;;;;12.99;47.90;98819.13;105998;1282;25387;-76
2022/04/14 08:28:56;;;;;;;29.70;11.30;;;;;;;13.16;47.37;98814.17;105629;1281;137653;-76
2022/04/14 08:31:24;;;;;;;23.10;10.00;;;;;;;13.31;47.29;98813.13;105655;1281;22569;-76
2022/04/14 08:33:51;;;;;;;16.40;9.50;;;;;;;13.47;46.63;98807.04;105780;1281;25291;-76
2022/04/14 08:36:21;;;;;;;18.50;10.10;;;;;;;13.63;46.09;98803.84;105672;1281;137331;-76
2022/04/14 08:38:50;;;;;;;;;;;;;;;13.79;46.24;98808.78;105740;1281;24391;-76
2022/04/14 08:41:36;;;;;;;20.50;10.20;;;;;;;13.96;46.12;98805.99;105487;1281;124257;-76
2022/04/14 08:44:22;;;;;;;23.50;11.20;;;;;;;14.14;46.28;98805.83;105681;1281;22553;-76
2022/04/14 08:47:08;;;;;;;21.10;10.80;;;;;;;14.33;46.12;98804.46;105799;1281;138328;-77
2022/04/14 08:49:35;;;;;;;28.00;11.20;;;;;;;14.51;46.16;98807.08;105708;1281;25646;-77
2022/04/14 08:52:18;;;;;;;21.20;10.40;;;;;;;14.68;45.11;98807.63;105755;1281;24357;-76
2022/04/14 08:54:46;;;;;;;24.60;10.30;;;;;;;14.84;45.16;98806.54;105702;1282;137337;-70
2022/04/14 08:57:29;;;;;;;19.10;10.70;;;;;;;15.01;44.19;98800.70;105803;1281;22592;-75
2022/04/14 08:59:58;;;;;;;26.80;11.30;;;;;;;15.16;44.36;98799.95;105415;1282;137672;-75
2022/04/14 09:02:43;;;;;;;21.60;11.10;;;;;;;15.33;42.90;98795.82;105300;1282;24402;-76
2022/04/14 09:05:11;;;;;;;21.20;10.40;;;;;;;15.47;43.09;98795.55;105485;1281;137761;-76
2022/04/14 09:07:52;;;;;;;15.20;9.60;;;;;;;15.65;42.89;98793.52;105799;1281;32029;-76
2022/04/14 09:10:36;;;;;;;16.20;9.30;;;;;;;15.83;41.58;98791.73;105399;1281;137583;-75
2022/04/14 09:13:03;;;;;;;17.30;9.70;;;;;;;15.99;41.51;98792.97;105611;1281;22588;-75
2022/04/14 09:15:32;;;;;;;16.90;9.40;;;;;;;16.18;41.08;98789.20;105642;1281;22577;-76
2022/04/14 09:17:59;;;;;;;16.70;9.60;;;;;;;16.36;41.44;98788.67;105286;1281;137635;-76
2022/04/14 09:20:37;;;;;;;17.60;9.40;;;;;;;16.53;41.32;98783.59;105528;1281;22739;-76
2022/04/14 09:23:23;;;;;;;12.50;8.50;;;;;;;16.71;40.89;98778.55;105197;1282;138049;-75
2022/04/14 09:26:06;;;;;;;11.70;7.60;;;;;;;16.93;39.86;98774.47;105598;1281;23189;-75
2022/04/14 09:28:33;;;;;;;17.80;7.70;;;;;;;17.08;39.17;98764.42;105360;1281;137615;-75
2022/04/14 09:31:14;;;;;;;11.90;7.70;;;;;;;17.28;39.43;98757.19;105412;1281;25320;-75
2022/04/14 09:33:46;;;;;;;14.30;7.80;;;;;;;17.45;39.12;98750.73;105450;1281;22563;-76
2022/04/14 09:36:19;;;;;;;21.00;10.40;;;;;;;17.63;38.02;98746.33;105341;1281;137921;-75
2022/04/14 09:39:07;;;;;;;20.00;10.50;;;;;;;17.80;38.18;98742.27;105438;1281;30198;-75
2022/04/14 09:41:42;;;;;;;15.20;6.90;;;;;;;17.97;37.57;98738.70;105428;1282;137678;-75
2022/04/14 09:44:14;;;;;;;17.10;7.60;;;;;;;18.11;36.50;98734.80;105434;1281;25689;-75
2022/04/14 09:46:55;;;;;;;13.90;7.00;;;;;;;18.26;36.44;98730.10;105451;1281;138106;-76
2022/04/14 09:49:23;;;;;;;13.50;7.40;;;;;;;18.37;35.18;98723.38;105538;1282;22596;-76
2022/04/14 09:51:51;;;;;;;13.70;7.30;;;;;;;18.48;35.23;98723.16;105449;1281;25624;-75
2022/04/14 09:54:32;;;;;;;16.00;7.10;;;;;;;18.60;35.78;98725.64;105537;1281;137900;-75
2022/04/14 09:57:05;;;;;;;14.00;7.20;;;;;;;18.69;35.03;98723.57;105701;1281;24378;-75
2022/04/14 09:59:34;;;;;;;15.60;7.00;;;;;;;18.77;35.09;98718.80;106281;1280;137520;-75
2022/04/14 10:02:14;;;;;;;12.90;6.90;;;;;;;18.88;34.84;98717.88;106677;1280;24387;-75
2022/04/14 10:04:47;;;;;;;14.70;8.10;;;;;;;19.03;34.90;98720.80;105887;1281;137619;-75
2022/04/14 10:07:19;;;;;;;14.50;7.50;;;;;;;19.17;35.05;98719.64;106083;1281;24319;-75
2022/04/14 10:09:51;;;;;;;14.50;7.40;;;;;;;19.27;34.62;98712.14;105972;1281;25369;-75
2022/04/14 10:12:18;;;;;;;12.60;7.20;;;;;;;19.37;34.35;98711.86;105867;1281;137703;-75
2022/04/14 10:15:05;;;;;;;14.20;7.20;;;;;;;19.43;34.84;98705.55;106170;1280;23597;-75
2022/04/14 10:17:42;;;;;;;10.90;7.20;;;;;;;19.45;34.23;98700.71;106256;1281;137588;-75
2022/04/14 10:20:25;;;;;;;15.60;6.90;;;;;;;19.41;34.30;98696.95;106123;1281;22588;-75
2022/04/14 10:22:52;;;;;;;12.70;6.80;;;;;;;19.40;34.60;98697.73;105741;1281;137563;-75
2022/04/14 10:25:20;;;;;;;12.70;6.60;;;;;;;19.40;34.60;98695.42;105862;1281;24432;-75
2022/04/14 10:27:52;;;;;;;15.30;6.50;;;;;;;19.39;34.43;98694.77;105718;1281;25565;-75
2022/04/14 10:30:20;;;;;;;11.80;5.70;;;;;;;19.38;34.58;98695.34;105523;1282;137468;-75
2022/04/14 10:32:58;;;;;;;13.30;6.60;;;;;;;19.34;34.47;98691.02;105760;1281;22554;-75
2022/04/14 10:35:27;;;;;;;12.90;7.00;;;;;;;19.28;34.20;98692.48;105579;1281;137476;-75
2022/04/14 10:38:06;;;;;;;12.60;6.60;;;;;;;19.26;33.43;98696.05;105750;1281;24393;-75
2022/04/14 10:40:47;;;;;;;12.70;6.40;;;;;;;19.25;33.65;98691.31;105660;1282;137676;-75
2022/04/14 10:43:20;;;;;;;16.70;6.40;;;;;;;19.23;33.97;98687.52;105643;1281;22566;-75
2022/04/14 10:46:02;;;;;;;9.50;6.20;;;;;;;19.25;33.08;98680.83;105669;1282;22641;-75
2022/04/14 10:48:35;;;;;;;11.30;6.10;;;;;;;19.30;32.71;98685.61;105571;1281;137500;-75
2022/04/14 10:51:17;;;;;;;11.00;6.40;;;;;;;19.38;32.86;98684.79;105720;1281;24689;-76
2022/04/14 10:53:48;;;;;;;14.50;6.70;;;;;;;19.36;32.83;98681.71;105496;1282;137659;-75
2022/04/14 10:56:34;;;;;;;10.20;6.00;;;;;;;19.35;33.36;98681.07;105708;1281;22583;-76
2022/04/14 10:59:16;;;;;;;11.80;6.90;;;;;;;19.38;33.70;98681.03;105703;1281;137477;-75
2022/04/14 11:02:04;;;;;;;11.70;6.00;;;;;;;19.46;32.76;98680.13;105775;1281;26551;-74
2022/04/14 11:04:38;;;;;;;12.40;7.30;;;;;;;19.57;33.06;98676.27;105572;1281;137492;-75
2022/04/14 11:07:09;;;;;;;12.10;6.60;;;;;;;19.70;33.54;98669.95;105722;1281;22541;-74
2022/04/14 11:09:42;;;;;;;11.60;6.80;;;;;;;19.88;33.01;98667.59;105510;1281;22560;-75
2022/04/14 11:12:33;;;;;;;11.60;6.10;;;;;;;20.09;32.72;98668.08;105410;1282;137562;-75
2022/04/14 11:15:05;;;;;;;11.30;6.60;;;;;;;20.36;32.96;98670.21;106005;1281;22560;-75
2022/04/14 11:17:53;;;;;;;11.90;6.70;;;;;;;20.56;31.19;98664.04;105824;1281;137419;-75
2022/04/14 11:20:45;;;;;;;9.00;6.10;;;;;;;20.70;31.41;98659.48;105698;1281;25271;-76
2022/04/14 11:23:13;;;;;;;13.40;6.90;;;;;;;20.91;32.37;98655.52;105508;1282;137343;-74
2022/04/14 11:25:52;;;;;;;10.10;6.40;;;;;;;21.11;32.31;98654.64;105824;1282;24318;-75
2022/04/14 11:28:21;;;;;;;12.10;6.30;;;;;;;21.30;31.27;98648.59;105874;1282;22557;-75
2022/04/14 11:30:50;;;;;;;11.20;7.30;;;;;;;21.44;30.67;98645.13;105657;1282;137491;-74
2022/04/14 11:33:28;;;;;;;12.60;7.50;;;;;;;21.54;29.89;98647.46;105760;1282;22603;-74
2022/04/14 11:36:18;;;;;;;12.90;7.10;;;;;;;21.62;30.04;98643.05;105520;1282;137964;-75
2022/04/14 11:38:52;;;;;;;12.70;6.70;;;;;;;21.69;29.38;98639.84;105552;1282;24315;-75
2022/04/14 11:41:36;;;;;;;12.80;6.30;;;;;;;21.74;29.29;98639.06;105616;1282;138338;-74